sensor_id;sensor_type;location;lat;lon;timestamp;P1;durP1;ratioP1;P2;durP2;ratioP2
12290;SDS011;6208;48.956;9.076;2023-09-08T00:00:56;5.90;;;5.40;;
12290;SDS011;6208;48.956;9.076;2023-09-08T00:03:40;5.72;;;5.32;;
12290;SDS011;6208;48.956;9.076;2023-09-08T00:06:24;5.80;;;5.25;;
12290;SDS011;6208;48.956;9.076;2023-09-08T00:09:09;6.00;;;5.53;;
12290;SDS011;6208;48.956;9.076;2023-09-08T00:11:53;6.22;;;5.63;;
12290;SDS011;6208;48.956;9.076;2023-09-08T00:14:40;6.53;;;5.95;;
12290;SDS011;6208;48.956;9.076;2023-09-08T00:17:24;7.38;;;6.47;;
12290;SDS011;6208;48.956;9.076;2023-09-08T00:20:08;6.25;;;5.65;;
12290;SDS011;6208;48.956;9.076;2023-09-08T00:22:52;6.82;;;5.82;;
12290;SDS011;6208;48.956;9.076;2023-09-08T00:25:36;8.65;;;5.80;;
12290;SDS011;6208;48.956;9.076;2023-09-08T00:28:20;6.72;;;6.03;;
12290;SDS011;6208;48.956;9.076;2023-09-08T00:31:05;9.55;;;6.13;;
12290;SDS011;6208;48.956;9.076;2023-09-08T00:33:49;9.38;;;5.97;;
12290;SDS011;6208;48.956;9.076;2023-09-08T00:36:33;7.40;;;5.75;;
12290;SDS011;6208;48.956;9.076;2023-09-08T00:39:17;6.97;;;6.00;;
12290;SDS011;6208;48.956;9.076;2023-09-08T00:42:02;7.50;;;5.60;;
12290;SDS011;6208;48.956;9.076;2023-09-08T00:44:46;6.20;;;5.60;;
12290;SDS011;6208;48.956;9.076;2023-09-08T00:47:30;6.53;;;5.35;;
12290;SDS011;6208;48.956;9.076;2023-09-08T00:50:14;8.52;;;5.60;;
12290;SDS011;6208;48.956;9.076;2023-09-08T00:52:58;6.85;;;6.10;;
12290;SDS011;6208;48.956;9.076;2023-09-08T00:55:42;6.53;;;5.82;;
12290;SDS011;6208;48.956;9.076;2023-09-08T00:58:29;6.50;;;5.90;;
12290;SDS011;6208;48.956;9.076;2023-09-08T01:01:16;6.85;;;6.25;;
12290;SDS011;6208;48.956;9.076;2023-09-08T01:04:01;5.68;;;5.18;;
12290;SDS011;6208;48.956;9.076;2023-09-08T01:06:46;6.38;;;5.88;;
12290;SDS011;6208;48.956;9.076;2023-09-08T01:09:30;6.22;;;5.68;;
12290;SDS011;6208;48.956;9.076;2023-09-08T01:12:15;6.05;;;5.55;;
12290;SDS011;6208;48.956;9.076;2023-09-08T01:14:59;6.05;;;5.50;;
12290;SDS011;6208;48.956;9.076;2023-09-08T01:17:47;7.68;;;5.90;;
12290;SDS011;6208;48.956;9.076;2023-09-08T01:27:05;6.80;;;6.10;;
12290;SDS011;6208;48.956;9.076;2023-09-08T01:29:51;7.65;;;5.95;;
12290;SDS011;6208;48.956;9.076;2023-09-08T01:32:37;6.53;;;5.93;;
12290;SDS011;6208;48.956;9.076;2023-09-08T01:35:22;6.47;;;5.97;;
12290;SDS011;6208;48.956;9.076;2023-09-08T01:38:08;6.45;;;5.72;;
12290;SDS011;6208;48.956;9.076;2023-09-08T01:40:52;6.72;;;5.68;;
12290;SDS011;6208;48.956;9.076;2023-09-08T01:43:36;6.25;;;5.75;;
12290;SDS011;6208;48.956;9.076;2023-09-08T01:46:20;5.93;;;5.43;;
12290;SDS011;6208;48.956;9.076;2023-09-08T01:49:04;6.22;;;5.63;;
12290;SDS011;6208;48.956;9.076;2023-09-08T01:51:48;6.85;;;6.25;;
12290;SDS011;6208;48.956;9.076;2023-09-08T01:54:34;6.35;;;5.75;;
12290;SDS011;6208;48.956;9.076;2023-09-08T01:57:18;6.80;;;6.20;;
12290;SDS011;6208;48.956;9.076;2023-09-08T02:00:02;6.32;;;5.82;;
12290;SDS011;6208;48.956;9.076;2023-09-08T02:02:47;9.15;;;6.90;;
12290;SDS011;6208;48.956;9.076;2023-09-08T02:05:31;6.60;;;6.00;;
12290;SDS011;6208;48.956;9.076;2023-09-08T02:08:15;6.93;;;6.05;;
12290;SDS011;6208;48.956;9.076;2023-09-08T02:10:59;6.85;;;6.30;;
12290;SDS011;6208;48.956;9.076;2023-09-08T02:13:43;6.53;;;5.90;;
12290;SDS011;6208;48.956;9.076;2023-09-08T02:16:27;6.93;;;6.35;;
12290;SDS011;6208;48.956;9.076;2023-09-08T02:19:12;7.43;;;6.68;;
12290;SDS011;6208;48.956;9.076;2023-09-08T02:21:56;6.28;;;5.78;;
12290;SDS011;6208;48.956;9.076;2023-09-08T02:24:40;7.07;;;6.47;;
12290;SDS011;6208;48.956;9.076;2023-09-08T02:27:24;6.50;;;5.90;;
12290;SDS011;6208;48.956;9.076;2023-09-08T02:30:08;6.18;;;5.68;;
12290;SDS011;6208;48.956;9.076;2023-09-08T02:32:53;6.85;;;6.18;;
12290;SDS011;6208;48.956;9.076;2023-09-08T02:35:38;6.35;;;5.90;;
12290;SDS011;6208;48.956;9.076;2023-09-08T02:38:23;6.28;;;5.75;;
12290;SDS011;6208;48.956;9.076;2023-09-08T02:41:07;8.90;;;5.63;;
12290;SDS011;6208;48.956;9.076;2023-09-08T02:43:51;6.95;;;5.40;;
12290;SDS011;6208;48.956;9.076;2023-09-08T02:46:35;5.88;;;5.38;;
12290;SDS011;6208;48.956;9.076;2023-09-08T02:49:19;6.93;;;6.05;;
12290;SDS011;6208;48.956;9.076;2023-09-08T02:52:03;6.28;;;5.78;;
12290;SDS011;6208;48.956;9.076;2023-09-08T02:54:48;7.03;;;6.20;;
12290;SDS011;6208;48.956;9.076;2023-09-08T02:57:32;6.93;;;6.25;;
12290;SDS011;6208;48.956;9.076;2023-09-08T03:00:16;7.13;;;6.53;;
12290;SDS011;6208;48.956;9.076;2023-09-08T03:03:00;6.85;;;6.15;;
12290;SDS011;6208;48.956;9.076;2023-09-08T03:05:44;6.57;;;5.97;;
12290;SDS011;6208;48.956;9.076;2023-09-08T03:08:28;6.30;;;5.70;;
12290;SDS011;6208;48.956;9.076;2023-09-08T03:11:12;6.78;;;6.22;;
12290;SDS011;6208;48.956;9.076;2023-09-08T03:13:56;6.95;;;6.35;;
12290;SDS011;6208;48.956;9.076;2023-09-08T03:16:41;7.85;;;6.18;;
12290;SDS011;6208;48.956;9.076;2023-09-08T03:19:25;6.25;;;5.55;;
12290;SDS011;6208;48.956;9.076;2023-09-08T03:22:09;8.07;;;6.10;;
12290;SDS011;6208;48.956;9.076;2023-09-08T03:24:53;6.88;;;6.28;;
12290;SDS011;6208;48.956;9.076;2023-09-08T03:27:37;6.80;;;6.25;;
12290;SDS011;6208;48.956;9.076;2023-09-08T03:30:21;7.72;;;6.47;;
12290;SDS011;6208;48.956;9.076;2023-09-08T03:33:05;7.43;;;6.47;;
12290;SDS011;6208;48.956;9.076;2023-09-08T03:35:49;7.13;;;5.93;;
12290;SDS011;6208;48.956;9.076;2023-09-08T03:38:33;8.82;;;6.20;;
12290;SDS011;6208;48.956;9.076;2023-09-08T03:41:17;6.45;;;5.90;;
12290;SDS011;6208;48.956;9.076;2023-09-08T03:44:01;6.88;;;6.30;;
12290;SDS011;6208;48.956;9.076;2023-09-08T03:46:45;6.97;;;6.38;;
12290;SDS011;6208;48.956;9.076;2023-09-08T03:49:29;6.90;;;6.30;;
12290;SDS011;6208;48.956;9.076;2023-09-08T03:52:13;6.85;;;6.28;;
12290;SDS011;6208;48.956;9.076;2023-09-08T03:54:57;7.15;;;6.22;;
12290;SDS011;6208;48.956;9.076;2023-09-08T03:57:42;11.48;;;6.43;;
12290;SDS011;6208;48.956;9.076;2023-09-08T04:00:26;6.57;;;5.93;;
12290;SDS011;6208;48.956;9.076;2023-09-08T04:03:11;7.32;;;6.53;;
12290;SDS011;6208;48.956;9.076;2023-09-08T04:05:55;6.75;;;6.05;;
12290;SDS011;6208;48.956;9.076;2023-09-08T04:08:39;6.40;;;5.90;;
12290;SDS011;6208;48.956;9.076;2023-09-08T04:11:23;6.30;;;5.70;;
12290;SDS011;6208;48.956;9.076;2023-09-08T04:14:07;7.78;;;5.82;;
12290;SDS011;6208;48.956;9.076;2023-09-08T04:16:51;6.05;;;5.53;;
12290;SDS011;6208;48.956;9.076;2023-09-08T04:19:35;6.15;;;5.65;;
12290;SDS011;6208;48.956;9.076;2023-09-08T04:22:19;6.32;;;5.85;;
12290;SDS011;6208;48.956;9.076;2023-09-08T04:25:04;6.70;;;6.07;;
12290;SDS011;6208;48.956;9.076;2023-09-08T04:27:49;6.72;;;6.22;;
12290;SDS011;6208;48.956;9.076;2023-09-08T04:30:33;7.05;;;6.18;;
12290;SDS011;6208;48.956;9.076;2023-09-08T04:33:20;7.38;;;6.22;;
12290;SDS011;6208;48.956;9.076;2023-09-08T04:36:04;8.45;;;6.40;;
12290;SDS011;6208;48.956;9.076;2023-09-08T04:38:48;7.05;;;6.43;;
12290;SDS011;6208;48.956;9.076;2023-09-08T04:41:32;7.10;;;6.50;;
12290;SDS011;6208;48.956;9.076;2023-09-08T04:44:16;8.10;;;6.38;;
12290;SDS011;6208;48.956;9.076;2023-09-08T04:47:00;6.80;;;6.22;;
12290;SDS011;6208;48.956;9.076;2023-09-08T04:49:44;6.03;;;5.53;;
12290;SDS011;6208;48.956;9.076;2023-09-08T04:52:29;6.22;;;5.70;;
12290;SDS011;6208;48.956;9.076;2023-09-08T04:55:13;6.47;;;5.97;;
12290;SDS011;6208;48.956;9.076;2023-09-08T04:57:57;6.15;;;5.53;;
12290;SDS011;6208;48.956;9.076;2023-09-08T05:00:41;6.13;;;5.63;;
12290;SDS011;6208;48.956;9.076;2023-09-08T05:03:26;6.05;;;5.60;;
12290;SDS011;6208;48.956;9.076;2023-09-08T05:06:10;6.68;;;6.07;;
12290;SDS011;6208;48.956;9.076;2023-09-08T05:08:54;6.95;;;6.40;;
12290;SDS011;6208;48.956;9.076;2023-09-08T05:11:38;7.30;;;6.18;;
12290;SDS011;6208;48.956;9.076;2023-09-08T05:14:22;7.05;;;6.35;;
12290;SDS011;6208;48.956;9.076;2023-09-08T05:17:08;6.85;;;6.25;;
12290;SDS011;6208;48.956;9.076;2023-09-08T05:19:52;7.18;;;6.57;;
12290;SDS011;6208;48.956;9.076;2023-09-08T05:22:36;7.03;;;6.43;;
12290;SDS011;6208;48.956;9.076;2023-09-08T05:25:20;6.78;;;6.20;;
12290;SDS011;6208;48.956;9.076;2023-09-08T05:28:04;8.75;;;6.65;;
12290;SDS011;6208;48.956;9.076;2023-09-08T05:30:52;7.90;;;6.57;;
12290;SDS011;6208;48.956;9.076;2023-09-08T05:33:37;8.65;;;6.05;;
12290;SDS011;6208;48.956;9.076;2023-09-08T05:36:21;6.40;;;5.63;;
12290;SDS011;6208;48.956;9.076;2023-09-08T05:39:05;7.10;;;6.50;;
12290;SDS011;6208;48.956;9.076;2023-09-08T05:41:49;6.30;;;5.80;;
12290;SDS011;6208;48.956;9.076;2023-09-08T05:44:33;6.72;;;5.95;;
12290;SDS011;6208;48.956;9.076;2023-09-08T05:47:17;7.40;;;6.75;;
12290;SDS011;6208;48.956;9.076;2023-09-08T05:50:01;7.57;;;6.97;;
12290;SDS011;6208;48.956;9.076;2023-09-08T05:52:46;11.85;;;10.07;;
12290;SDS011;6208;48.956;9.076;2023-09-08T05:55:30;9.73;;;8.05;;
12290;SDS011;6208;48.956;9.076;2023-09-08T05:58:14;7.22;;;6.63;;
12290;SDS011;6208;48.956;9.076;2023-09-08T06:00:58;7.05;;;6.45;;
12290;SDS011;6208;48.956;9.076;2023-09-08T06:03:44;7.47;;;6.88;;
12290;SDS011;6208;48.956;9.076;2023-09-08T06:06:28;7.65;;;6.93;;
12290;SDS011;6208;48.956;9.076;2023-09-08T06:09:13;10.20;;;7.80;;
12290;SDS011;6208;48.956;9.076;2023-09-08T06:11:59;7.30;;;6.70;;
12290;SDS011;6208;48.956;9.076;2023-09-08T06:14:43;8.25;;;7.40;;
12290;SDS011;6208;48.956;9.076;2023-09-08T06:17:27;9.68;;;7.45;;
12290;SDS011;6208;48.956;9.076;2023-09-08T06:20:11;8.85;;;7.50;;
12290;SDS011;6208;48.956;9.076;2023-09-08T06:22:56;8.48;;;7.70;;
12290;SDS011;6208;48.956;9.076;2023-09-08T06:25:40;8.30;;;7.60;;
12290;SDS011;6208;48.956;9.076;2023-09-08T06:28:25;12.27;;;7.75;;
12290;SDS011;6208;48.956;9.076;2023-09-08T06:31:10;8.05;;;7.30;;
12290;SDS011;6208;48.956;9.076;2023-09-08T06:33:54;7.90;;;7.15;;
12290;SDS011;6208;48.956;9.076;2023-09-08T06:36:39;7.45;;;6.75;;
12290;SDS011;6208;48.956;9.076;2023-09-08T06:39:24;7.47;;;6.88;;
12290;SDS011;6208;48.956;9.076;2023-09-08T06:42:09;8.88;;;7.97;;
12290;SDS011;6208;48.956;9.076;2023-09-08T06:44:53;9.00;;;7.80;;
12290;SDS011;6208;48.956;9.076;2023-09-08T06:47:37;9.13;;;7.85;;
12290;SDS011;6208;48.956;9.076;2023-09-08T06:50:21;7.82;;;7.22;;
12290;SDS011;6208;48.956;9.076;2023-09-08T06:53:06;8.13;;;7.40;;
12290;SDS011;6208;48.956;9.076;2023-09-08T06:55:50;7.78;;;6.95;;
12290;SDS011;6208;48.956;9.076;2023-09-08T06:58:35;9.10;;;7.55;;
12290;SDS011;6208;48.956;9.076;2023-09-08T07:01:19;7.75;;;7.05;;
12290;SDS011;6208;48.956;9.076;2023-09-08T07:04:03;8.15;;;7.45;;
12290;SDS011;6208;48.956;9.076;2023-09-08T07:06:48;8.45;;;7.65;;
12290;SDS011;6208;48.956;9.076;2023-09-08T07:09:34;8.50;;;7.50;;
12290;SDS011;6208;48.956;9.076;2023-09-08T07:12:19;9.90;;;8.20;;
12290;SDS011;6208;48.956;9.076;2023-09-08T07:15:03;8.18;;;7.38;;
12290;SDS011;6208;48.956;9.076;2023-09-08T07:17:48;8.00;;;7.28;;
12290;SDS011;6208;48.956;9.076;2023-09-08T07:20:32;10.70;;;7.57;;
12290;SDS011;6208;48.956;9.076;2023-09-08T07:23:16;8.75;;;7.32;;
12290;SDS011;6208;48.956;9.076;2023-09-08T07:26:01;8.00;;;7.32;;
12290;SDS011;6208;48.956;9.076;2023-09-08T07:28:46;6.68;;;6.18;;
12290;SDS011;6208;48.956;9.076;2023-09-08T07:31:30;9.27;;;6.53;;
12290;SDS011;6208;48.956;9.076;2023-09-08T07:34:14;6.93;;;6.32;;
12290;SDS011;6208;48.956;9.076;2023-09-08T07:36:59;6.72;;;6.13;;
12290;SDS011;6208;48.956;9.076;2023-09-08T07:39:44;6.22;;;5.70;;
12290;SDS011;6208;48.956;9.076;2023-09-08T07:42:29;7.53;;;6.22;;
12290;SDS011;6208;48.956;9.076;2023-09-08T07:45:14;8.15;;;5.97;;
12290;SDS011;6208;48.956;9.076;2023-09-08T07:48:01;7.15;;;6.25;;
12290;SDS011;6208;48.956;9.076;2023-09-08T07:50:46;6.97;;;5.95;;
12290;SDS011;6208;48.956;9.076;2023-09-08T07:53:30;6.57;;;6.05;;
12290;SDS011;6208;48.956;9.076;2023-09-08T07:56:15;6.53;;;5.90;;
12290;SDS011;6208;48.956;9.076;2023-09-08T07:58:59;5.97;;;5.47;;
12290;SDS011;6208;48.956;9.076;2023-09-08T08:01:43;6.20;;;5.55;;
12290;SDS011;6208;48.956;9.076;2023-09-08T08:04:27;9.73;;;5.60;;
12290;SDS011;6208;48.956;9.076;2023-09-08T08:07:11;6.53;;;5.88;;
12290;SDS011;6208;48.956;9.076;2023-09-08T08:09:55;6.57;;;5.97;;
12290;SDS011;6208;48.956;9.076;2023-09-08T08:12:39;6.55;;;5.93;;
12290;SDS011;6208;48.956;9.076;2023-09-08T08:15:33;7.00;;;5.93;;
12290;SDS011;6208;48.956;9.076;2023-09-08T08:18:19;6.47;;;5.78;;
12290;SDS011;6208;48.956;9.076;2023-09-08T08:21:03;5.88;;;5.32;;
12290;SDS011;6208;48.956;9.076;2023-09-08T08:23:48;6.32;;;5.80;;
12290;SDS011;6208;48.956;9.076;2023-09-08T08:26:32;7.28;;;4.85;;
12290;SDS011;6208;48.956;9.076;2023-09-08T08:29:16;6.07;;;5.55;;
12290;SDS011;6208;48.956;9.076;2023-09-08T08:32:00;6.55;;;5.95;;
12290;SDS011;6208;48.956;9.076;2023-09-08T08:34:45;5.72;;;5.22;;
12290;SDS011;6208;48.956;9.076;2023-09-08T08:37:29;6.38;;;5.75;;
12290;SDS011;6208;48.956;9.076;2023-09-08T08:40:13;5.72;;;5.10;;
12290;SDS011;6208;48.956;9.076;2023-09-08T08:42:57;6.60;;;5.32;;
12290;SDS011;6208;48.956;9.076;2023-09-08T08:45:42;5.07;;;4.70;;
12290;SDS011;6208;48.956;9.076;2023-09-08T08:48:28;7.32;;;5.35;;
12290;SDS011;6208;48.956;9.076;2023-09-08T08:51:14;8.30;;;5.80;;
12290;SDS011;6208;48.956;9.076;2023-09-08T08:54:04;11.60;;;5.88;;
12290;SDS011;6208;48.956;9.076;2023-09-08T08:56:48;8.23;;;6.15;;
12290;SDS011;6208;48.956;9.076;2023-09-08T08:59:33;6.53;;;5.93;;
12290;SDS011;6208;48.956;9.076;2023-09-08T09:02:17;5.68;;;5.07;;
12290;SDS011;6208;48.956;9.076;2023-09-08T09:05:02;5.40;;;4.90;;
12290;SDS011;6208;48.956;9.076;2023-09-08T09:07:48;6.55;;;5.53;;
12290;SDS011;6208;48.956;9.076;2023-09-08T09:10:34;9.48;;;5.50;;
12290;SDS011;6208;48.956;9.076;2023-09-08T09:13:19;5.10;;;4.70;;
12290;SDS011;6208;48.956;9.076;2023-09-08T09:16:06;5.35;;;4.95;;
12290;SDS011;6208;48.956;9.076;2023-09-08T09:18:54;5.57;;;5.07;;
12290;SDS011;6208;48.956;9.076;2023-09-08T09:21:43;5.65;;;5.25;;
12290;SDS011;6208;48.956;9.076;2023-09-08T09:24:35;6.90;;;5.15;;
12290;SDS011;6208;48.956;9.076;2023-09-08T09:27:24;5.47;;;5.07;;
12290;SDS011;6208;48.956;9.076;2023-09-08T09:30:08;5.43;;;5.03;;
12290;SDS011;6208;48.956;9.076;2023-09-08T09:33:02;5.55;;;5.07;;
12290;SDS011;6208;48.956;9.076;2023-09-08T09:35:52;5.63;;;5.22;;
12290;SDS011;6208;48.956;9.076;2023-09-08T09:38:38;5.55;;;5.05;;
12290;SDS011;6208;48.956;9.076;2023-09-08T09:41:22;5.60;;;5.10;;
12290;SDS011;6208;48.956;9.076;2023-09-08T09:44:07;5.65;;;5.20;;
12290;SDS011;6208;48.956;9.076;2023-09-08T09:46:53;6.00;;;5.15;;
12290;SDS011;6208;48.956;9.076;2023-09-08T09:49:41;6.78;;;5.05;;
12290;SDS011;6208;48.956;9.076;2023-09-08T09:52:29;5.20;;;4.80;;
12290;SDS011;6208;48.956;9.076;2023-09-08T09:55:15;5.22;;;4.72;;
12290;SDS011;6208;48.956;9.076;2023-09-08T09:58:00;7.75;;;4.95;;
12290;SDS011;6208;48.956;9.076;2023-09-08T10:00:47;5.65;;;5.15;;
12290;SDS011;6208;48.956;9.076;2023-09-08T10:03:33;5.97;;;5.43;;
12290;SDS011;6208;48.956;9.076;2023-09-08T10:06:17;6.45;;;4.47;;
12290;SDS011;6208;48.956;9.076;2023-09-08T10:09:04;4.82;;;4.43;;
12290;SDS011;6208;48.956;9.076;2023-09-08T10:11:52;4.70;;;4.40;;
12290;SDS011;6208;48.956;9.076;2023-09-08T10:14:40;4.75;;;4.45;;
12290;SDS011;6208;48.956;9.076;2023-09-08T10:17:25;6.28;;;4.47;;
12290;SDS011;6208;48.956;9.076;2023-09-08T10:20:13;5.70;;;4.70;;
12290;SDS011;6208;48.956;9.076;2023-09-08T10:23:04;5.38;;;4.88;;
12290;SDS011;6208;48.956;9.076;2023-09-08T10:25:57;5.22;;;4.72;;
12290;SDS011;6208;48.956;9.076;2023-09-08T10:28:47;5.10;;;4.60;;
12290;SDS011;6208;48.956;9.076;2023-09-08T10:31:32;4.85;;;4.45;;
12290;SDS011;6208;48.956;9.076;2023-09-08T10:34:19;5.38;;;4.97;;
12290;SDS011;6208;48.956;9.076;2023-09-08T10:37:21;5.13;;;4.72;;
12290;SDS011;6208;48.956;9.076;2023-09-08T10:43:11;5.20;;;4.75;;
12290;SDS011;6208;48.956;9.076;2023-09-08T10:45:55;4.85;;;4.55;;
12290;SDS011;6208;48.956;9.076;2023-09-08T10:48:44;4.82;;;4.43;;
12290;SDS011;6208;48.956;9.076;2023-09-08T10:51:28;5.25;;;4.85;;
12290;SDS011;6208;48.956;9.076;2023-09-08T10:54:22;4.80;;;4.50;;
12290;SDS011;6208;48.956;9.076;2023-09-08T10:57:46;4.75;;;4.35;;
12290;SDS011;6208;48.956;9.076;2023-09-08T11:00:42;4.80;;;4.40;;
12290;SDS011;6208;48.956;9.076;2023-09-08T11:03:29;4.72;;;4.43;;
12290;SDS011;6208;48.956;9.076;2023-09-08T11:06:31;5.03;;;4.50;;
12290;SDS011;6208;48.956;9.076;2023-09-08T11:09:15;6.00;;;4.88;;
12290;SDS011;6208;48.956;9.076;2023-09-08T11:12:00;5.10;;;4.70;;
12290;SDS011;6208;48.956;9.076;2023-09-08T11:14:46;4.78;;;4.47;;
12290;SDS011;6208;48.956;9.076;2023-09-08T11:17:33;5.05;;;4.57;;
12290;SDS011;6208;48.956;9.076;2023-09-08T11:20:26;5.03;;;4.72;;
12290;SDS011;6208;48.956;9.076;2023-09-08T11:23:11;5.03;;;4.40;;
12290;SDS011;6208;48.956;9.076;2023-09-08T11:25:55;4.82;;;4.45;;
12290;SDS011;6208;48.956;9.076;2023-09-08T11:28:40;7.60;;;4.78;;
12290;SDS011;6208;48.956;9.076;2023-09-08T11:31:25;7.32;;;4.88;;
12290;SDS011;6208;48.956;9.076;2023-09-08T11:34:10;7.63;;;4.85;;
12290;SDS011;6208;48.956;9.076;2023-09-08T11:36:57;4.90;;;4.60;;
12290;SDS011;6208;48.956;9.076;2023-09-08T11:39:42;4.80;;;4.50;;
12290;SDS011;6208;48.956;9.076;2023-09-08T11:42:27;5.40;;;4.75;;
12290;SDS011;6208;48.956;9.076;2023-09-08T11:45:12;5.32;;;4.60;;
12290;SDS011;6208;48.956;9.076;2023-09-08T11:47:57;5.25;;;4.75;;
12290;SDS011;6208;48.956;9.076;2023-09-08T11:50:44;5.80;;;5.25;;
12290;SDS011;6208;48.956;9.076;2023-09-08T11:53:28;5.30;;;4.72;;
12290;SDS011;6208;48.956;9.076;2023-09-08T11:56:12;5.10;;;4.70;;
12290;SDS011;6208;48.956;9.076;2023-09-08T11:58:57;4.63;;;4.32;;
12290;SDS011;6208;48.956;9.076;2023-09-08T12:01:41;6.00;;;4.40;;
12290;SDS011;6208;48.956;9.076;2023-09-08T12:04:26;4.72;;;4.43;;
12290;SDS011;6208;48.956;9.076;2023-09-08T12:07:14;4.95;;;4.55;;
12290;SDS011;6208;48.956;9.076;2023-09-08T12:10:06;5.18;;;4.80;;
12290;SDS011;6208;48.956;9.076;2023-09-08T12:12:54;5.10;;;4.75;;
12290;SDS011;6208;48.956;9.076;2023-09-08T12:15:42;4.43;;;4.03;;
12290;SDS011;6208;48.956;9.076;2023-09-08T12:18:37;5.85;;;4.65;;
12290;SDS011;6208;48.956;9.076;2023-09-08T12:21:22;4.63;;;4.35;;
12290;SDS011;6208;48.956;9.076;2023-09-08T12:24:06;4.80;;;4.35;;
12290;SDS011;6208;48.956;9.076;2023-09-08T12:26:50;4.88;;;4.50;;
12290;SDS011;6208;48.956;9.076;2023-09-08T12:29:35;4.28;;;3.97;;
12290;SDS011;6208;48.956;9.076;2023-09-08T12:32:20;4.72;;;4.32;;
12290;SDS011;6208;48.956;9.076;2023-09-08T12:35:05;4.18;;;3.97;;
12290;SDS011;6208;48.956;9.076;2023-09-08T12:37:56;4.72;;;4.43;;
12290;SDS011;6208;48.956;9.076;2023-09-08T12:40:46;5.35;;;4.85;;
12290;SDS011;6208;48.956;9.076;2023-09-08T12:43:31;4.85;;;4.53;;
12290;SDS011;6208;48.956;9.076;2023-09-08T12:46:16;4.70;;;4.30;;
12290;SDS011;6208;48.956;9.076;2023-09-08T12:49:02;4.53;;;4.30;;
12290;SDS011;6208;48.956;9.076;2023-09-08T12:51:46;4.40;;;4.00;;
12290;SDS011;6208;48.956;9.076;2023-09-08T12:54:30;4.70;;;4.30;;
12290;SDS011;6208;48.956;9.076;2023-09-08T12:57:14;4.80;;;4.40;;
12290;SDS011;6208;48.956;9.076;2023-09-08T12:59:58;4.30;;;4.10;;
12290;SDS011;6208;48.956;9.076;2023-09-08T13:02:43;5.05;;;4.70;;
12290;SDS011;6208;48.956;9.076;2023-09-08T13:05:28;4.60;;;4.30;;
12290;SDS011;6208;48.956;9.076;2023-09-08T13:08:12;4.72;;;4.32;;
12290;SDS011;6208;48.956;9.076;2023-09-08T13:10:58;4.50;;;4.20;;
12290;SDS011;6208;48.956;9.076;2023-09-08T13:13:42;4.63;;;4.30;;
12290;SDS011;6208;48.956;9.076;2023-09-08T13:16:26;4.88;;;4.43;;
12290;SDS011;6208;48.956;9.076;2023-09-08T13:19:10;4.75;;;4.35;;
12290;SDS011;6208;48.956;9.076;2023-09-08T13:21:55;4.85;;;4.53;;
12290;SDS011;6208;48.956;9.076;2023-09-08T13:24:39;4.70;;;4.38;;
12290;SDS011;6208;48.956;9.076;2023-09-08T13:27:24;4.65;;;4.35;;
12290;SDS011;6208;48.956;9.076;2023-09-08T13:30:11;4.22;;;4.00;;
12290;SDS011;6208;48.956;9.076;2023-09-08T13:32:57;5.63;;;4.30;;
12290;SDS011;6208;48.956;9.076;2023-09-08T13:35:40;4.40;;;4.20;;
12290;SDS011;6208;48.956;9.076;2023-09-08T13:38:25;5.25;;;4.70;;
12290;SDS011;6208;48.956;9.076;2023-09-08T13:41:09;4.75;;;4.38;;
12290;SDS011;6208;48.956;9.076;2023-09-08T13:43:53;6.72;;;4.40;;
12290;SDS011;6208;48.956;9.076;2023-09-08T13:46:37;4.72;;;4.38;;
12290;SDS011;6208;48.956;9.076;2023-09-08T13:49:22;4.35;;;3.95;;
12290;SDS011;6208;48.956;9.076;2023-09-08T13:52:06;4.63;;;4.32;;
12290;SDS011;6208;48.956;9.076;2023-09-08T13:54:50;5.00;;;4.50;;
12290;SDS011;6208;48.956;9.076;2023-09-08T13:57:35;4.90;;;4.55;;
12290;SDS011;6208;48.956;9.076;2023-09-08T14:00:19;5.43;;;4.30;;
12290;SDS011;6208;48.956;9.076;2023-09-08T14:03:03;4.40;;;4.20;;
12290;SDS011;6208;48.956;9.076;2023-09-08T14:05:48;4.57;;;4.28;;
12290;SDS011;6208;48.956;9.076;2023-09-08T14:08:32;4.25;;;3.90;;
12290;SDS011;6208;48.956;9.076;2023-09-08T14:11:16;4.65;;;4.35;;
12290;SDS011;6208;48.956;9.076;2023-09-08T14:14:03;4.38;;;4.18;;
12290;SDS011;6208;48.956;9.076;2023-09-08T14:16:47;4.65;;;4.35;;
12290;SDS011;6208;48.956;9.076;2023-09-08T14:19:31;4.50;;;4.10;;
12290;SDS011;6208;48.956;9.076;2023-09-08T14:22:15;4.05;;;3.85;;
12290;SDS011;6208;48.956;9.076;2023-09-08T14:24:59;5.40;;;4.13;;
12290;SDS011;6208;48.956;9.076;2023-09-08T14:27:44;4.50;;;4.10;;
12290;SDS011;6208;48.956;9.076;2023-09-08T14:30:28;4.55;;;4.25;;
12290;SDS011;6208;48.956;9.076;2023-09-08T14:33:13;5.40;;;4.85;;
12290;SDS011;6208;48.956;9.076;2023-09-08T14:35:57;16.63;;;5.95;;
12290;SDS011;6208;48.956;9.076;2023-09-08T14:38:42;4.63;;;4.32;;
12290;SDS011;6208;48.956;9.076;2023-09-08T14:41:26;9.30;;;4.68;;
12290;SDS011;6208;48.956;9.076;2023-09-08T14:44:10;6.45;;;4.38;;
12290;SDS011;6208;48.956;9.076;2023-09-08T14:46:54;4.82;;;4.43;;
12290;SDS011;6208;48.956;9.076;2023-09-08T14:49:38;4.60;;;4.20;;
12290;SDS011;6208;48.956;9.076;2023-09-08T14:52:23;4.30;;;4.00;;
12290;SDS011;6208;48.956;9.076;2023-09-08T14:55:07;4.55;;;4.25;;
12290;SDS011;6208;48.956;9.076;2023-09-08T14:57:52;4.43;;;4.13;;
12290;SDS011;6208;48.956;9.076;2023-09-08T15:00:36;4.40;;;4.10;;
12290;SDS011;6208;48.956;9.076;2023-09-08T15:03:20;4.78;;;4.05;;
12290;SDS011;6208;48.956;9.076;2023-09-08T15:06:04;4.53;;;4.22;;
12290;SDS011;6208;48.956;9.076;2023-09-08T15:08:49;6.40;;;4.13;;
12290;SDS011;6208;48.956;9.076;2023-09-08T15:11:33;4.78;;;4.47;;
12290;SDS011;6208;48.956;9.076;2023-09-08T15:14:17;4.30;;;4.00;;
12290;SDS011;6208;48.956;9.076;2023-09-08T15:17:01;4.53;;;4.22;;
12290;SDS011;6208;48.956;9.076;2023-09-08T15:19:46;3.88;;;3.58;;
12290;SDS011;6208;48.956;9.076;2023-09-08T15:22:30;4.30;;;4.00;;
12290;SDS011;6208;48.956;9.076;2023-09-08T15:25:14;5.05;;;4.70;;
12290;SDS011;6208;48.956;9.076;2023-09-08T15:27:58;9.00;;;4.72;;
12290;SDS011;6208;48.956;9.076;2023-09-08T15:30:46;4.57;;;4.25;;
12290;SDS011;6208;48.956;9.076;2023-09-08T15:33:31;4.30;;;4.00;;
12290;SDS011;6208;48.956;9.076;2023-09-08T15:36:15;4.53;;;4.22;;
12290;SDS011;6208;48.956;9.076;2023-09-08T15:38:59;4.88;;;4.40;;
12290;SDS011;6208;48.956;9.076;2023-09-08T15:41:43;4.78;;;4.30;;
12290;SDS011;6208;48.956;9.076;2023-09-08T15:44:27;4.47;;;4.07;;
12290;SDS011;6208;48.956;9.076;2023-09-08T15:47:11;5.72;;;5.32;;
12290;SDS011;6208;48.956;9.076;2023-09-08T15:49:55;4.18;;;3.88;;
12290;SDS011;6208;48.956;9.076;2023-09-08T15:52:39;7.47;;;4.22;;
12290;SDS011;6208;48.956;9.076;2023-09-08T15:55:23;7.22;;;6.63;;
12290;SDS011;6208;48.956;9.076;2023-09-08T15:58:07;8.73;;;5.65;;
12290;SDS011;6208;48.956;9.076;2023-09-08T16:00:51;4.57;;;4.28;;
12290;SDS011;6208;48.956;9.076;2023-09-08T16:03:36;4.85;;;4.50;;
12290;SDS011;6208;48.956;9.076;2023-09-08T16:06:20;5.03;;;4.55;;
12290;SDS011;6208;48.956;9.076;2023-09-08T16:09:04;5.25;;;4.72;;
12290;SDS011;6208;48.956;9.076;2023-09-08T16:11:49;5.05;;;4.70;;
12290;SDS011;6208;48.956;9.076;2023-09-08T16:14:33;4.90;;;4.53;;
12290;SDS011;6208;48.956;9.076;2023-09-08T16:17:19;5.03;;;4.72;;
12290;SDS011;6208;48.956;9.076;2023-09-08T16:20:03;4.68;;;4.30;;
12290;SDS011;6208;48.956;9.076;2023-09-08T16:22:48;5.03;;;4.63;;
12290;SDS011;6208;48.956;9.076;2023-09-08T16:25:32;5.10;;;4.65;;
12290;SDS011;6208;48.956;9.076;2023-09-08T16:28:16;4.68;;;4.38;;
12290;SDS011;6208;48.956;9.076;2023-09-08T16:31:04;4.80;;;4.40;;
12290;SDS011;6208;48.956;9.076;2023-09-08T16:33:49;5.75;;;4.82;;
12290;SDS011;6208;48.956;9.076;2023-09-08T16:36:33;4.93;;;4.50;;
12290;SDS011;6208;48.956;9.076;2023-09-08T16:39:17;5.50;;;5.03;;
12290;SDS011;6208;48.956;9.076;2023-09-08T16:42:01;5.25;;;4.85;;
12290;SDS011;6208;48.956;9.076;2023-09-08T16:44:46;5.30;;;4.85;;
12290;SDS011;6208;48.956;9.076;2023-09-08T16:47:30;9.00;;;6.93;;
12290;SDS011;6208;48.956;9.076;2023-09-08T16:50:15;5.15;;;4.75;;
12290;SDS011;6208;48.956;9.076;2023-09-08T16:52:59;5.07;;;4.78;;
12290;SDS011;6208;48.956;9.076;2023-09-08T16:55:43;6.38;;;5.10;;
12290;SDS011;6208;48.956;9.076;2023-09-08T16:58:27;5.60;;;4.95;;